createdAt,value
2023-03-26T00:00:26.340Z,0.70
2023-03-26T00:02:56.589Z,0.70
2023-03-26T00:05:26.946Z,0.70
2023-03-26T00:07:57.155Z,0.70
2023-03-26T00:10:29.012Z,0.70
2023-03-26T00:12:59.224Z,0.70
2023-03-26T00:15:29.791Z,0.70
2023-03-26T00:18:02.098Z,0.70
2023-03-26T00:20:35.979Z,0.70
2023-03-26T00:23:07.030Z,0.70
2023-03-26T00:25:42.205Z,0.70
2023-03-26T00:28:12.759Z,0.70
2023-03-26T00:30:43.590Z,0.70
2023-03-26T00:33:19.414Z,0.70
2023-03-26T00:35:56.233Z,0.70
2023-03-26T00:38:27.881Z,0.70
2023-03-26T00:41:06.823Z,0.80
2023-03-26T00:43:39.917Z,0.80
2023-03-26T00:46:11.390Z,0.80
2023-03-26T00:48:45.739Z,0.70
2023-03-26T00:51:21.444Z,0.70
2023-03-26T00:53:54.092Z,0.80
2023-03-26T00:56:26.635Z,0.80
2023-03-26T00:58:58.269Z,0.70
2023-03-26T01:01:32.383Z,0.70
2023-03-26T01:04:28.638Z,0.70
2023-03-26T01:07:01.496Z,0.70
2023-03-26T01:09:40.293Z,0.70
2023-03-26T01:12:16.499Z,0.70
2023-03-26T01:14:47.785Z,0.70
2023-03-26T01:17:18.442Z,0.70
2023-03-26T01:19:54.164Z,0.80
2023-03-26T01:22:27.257Z,0.70
2023-03-26T01:24:59.114Z,0.80
2023-03-26T01:27:39.683Z,0.80
2023-03-26T01:30:17.900Z,0.80
2023-03-26T01:33:01.138Z,0.80
2023-03-26T01:35:40.877Z,0.80
2023-03-26T01:38:24.922Z,0.80
2023-03-26T01:41:02.638Z,0.80
2023-03-26T01:43:38.960Z,0.80
2023-03-26T01:46:13.680Z,0.80
2023-03-26T01:48:46.345Z,0.80
2023-03-26T01:51:27.689Z,0.80
2023-03-26T01:54:00.002Z,0.70
2023-03-26T01:56:38.816Z,0.80
2023-03-26T01:59:23.789Z,0.80
2023-03-26T02:02:02.173Z,0.80
2023-03-26T02:04:43.717Z,0.80
2023-03-26T02:07:24.335Z,0.80
2023-03-26T02:09:58.036Z,0.80
2023-03-26T02:12:31.655Z,0.80
2023-03-26T02:15:03.671Z,0.80
2023-03-26T02:17:33.937Z,0.80
2023-03-26T02:20:11.568Z,0.80
2023-03-26T02:22:46.456Z,0.80
2023-03-26T02:25:18.696Z,0.80
2023-03-26T02:27:51.716Z,0.80
2023-03-26T02:30:26.700Z,0.80
2023-03-26T02:32:59.666Z,0.80
2023-03-26T02:35:30.252Z,0.80
2023-03-26T02:38:00.558Z,0.80
2023-03-26T02:40:30.774Z,0.80
2023-03-26T02:43:02.501Z,0.80
2023-03-26T02:45:32.781Z,0.80
2023-03-26T02:48:03.196Z,0.90
2023-03-26T02:50:37.446Z,0.90
2023-03-26T02:53:08.222Z,0.90
2023-03-26T02:55:38.602Z,0.90
2023-03-26T02:58:10.350Z,0.90
2023-03-26T03:00:40.794Z,0.90
2023-03-26T03:03:11.316Z,0.80
2023-03-26T03:05:43.778Z,0.90
2023-03-26T03:08:14.227Z,0.90
2023-03-26T03:10:44.508Z,0.90
2023-03-26T03:13:16.406Z,0.90
2023-03-26T03:15:46.604Z,0.90
2023-03-26T03:18:17.195Z,0.90
2023-03-26T03:20:47.507Z,0.90
2023-03-26T03:23:17.940Z,0.90
2023-03-26T03:25:49.414Z,0.90
2023-03-26T03:28:21.244Z,0.90
2023-03-26T03:30:53.678Z,0.90
2023-03-26T03:33:24.130Z,0.90
2023-03-26T03:35:54.712Z,0.90
2023-03-26T03:38:25.408Z,0.90
2023-03-26T03:40:56.153Z,0.90
2023-03-26T03:43:28.180Z,0.90
2023-03-26T03:45:58.903Z,0.90
2023-03-26T03:48:29.947Z,0.90
2023-03-26T03:51:00.671Z,0.90
2023-03-26T03:53:31.102Z,0.90
2023-03-26T03:56:02.698Z,0.90
2023-03-26T03:58:35.253Z,0.90
2023-03-26T04:01:05.608Z,0.90
2023-03-26T04:03:39.500Z,1.00
2023-03-26T04:06:11.780Z,1.00
2023-03-26T04:08:42.193Z,1.00
2023-03-26T04:11:12.396Z,1.00
2023-03-26T04:13:44.363Z,1.00
2023-03-26T04:16:14.634Z,1.00
2023-03-26T04:18:45.798Z,1.00
2023-03-26T04:21:16.468Z,1.00
2023-03-26T04:23:46.656Z,1.00
2023-03-26T04:26:20.418Z,1.00
2023-03-26T04:28:55.456Z,1.00
2023-03-26T04:31:31.328Z,1.10
2023-03-26T04:34:08.334Z,1.10
2023-03-26T04:36:38.598Z,1.20
2023-03-26T04:39:09.162Z,1.20
2023-03-26T04:41:39.439Z,1.20
2023-03-26T04:44:12.472Z,1.20
2023-03-26T04:46:44.249Z,1.20
2023-03-26T04:49:14.693Z,1.30
2023-03-26T04:51:47.730Z,1.30
2023-03-26T04:54:22.512Z,1.40
2023-03-26T04:56:57.299Z,1.40
2023-03-26T04:59:35.401Z,1.50
2023-03-26T05:02:08.992Z,1.60
2023-03-26T05:04:41.861Z,1.60
2023-03-26T05:07:14.274Z,1.60
2023-03-26T05:09:44.606Z,1.70
2023-03-26T05:12:15.059Z,1.70
2023-03-26T05:14:46.837Z,1.80
2023-03-26T05:17:19.541Z,2.00
2023-03-26T05:19:49.809Z,2.10
2023-03-26T05:22:20.086Z,2.20
2023-03-26T05:24:50.257Z,2.20
2023-03-26T05:27:22.009Z,2.30
2023-03-26T05:29:53.832Z,2.40
2023-03-26T05:32:24.016Z,2.60
2023-03-26T05:34:54.319Z,2.60
2023-03-26T05:37:25.416Z,2.60
2023-03-26T05:39:56.797Z,2.70
2023-03-26T05:42:27.242Z,2.80
2023-03-26T05:44:59.029Z,2.80
2023-03-26T05:47:29.884Z,2.80
2023-03-26T05:50:00.171Z,2.80
2023-03-26T05:52:30.447Z,2.80
2023-03-26T05:55:00.945Z,2.80
2023-03-26T05:57:32.462Z,2.90
2023-03-26T06:00:05.197Z,2.90
2023-03-26T06:02:35.543Z,2.90
2023-03-26T06:05:05.867Z,2.90
2023-03-26T06:07:36.048Z,2.90
2023-03-26T06:10:06.302Z,2.90
2023-03-26T06:12:37.604Z,2.90
2023-03-26T06:15:11.012Z,2.80
2023-03-26T06:17:41.200Z,2.70
2023-03-26T06:20:12.968Z,2.70
2023-03-26T06:22:43.233Z,2.70
2023-03-26T06:25:13.532Z,2.70
2023-03-26T06:27:43.714Z,2.70
2023-03-26T06:30:16.382Z,2.60
2023-03-26T06:32:46.694Z,2.60
2023-03-26T06:35:17.053Z,2.60
2023-03-26T06:37:47.610Z,2.60
2023-03-26T06:40:18.456Z,2.60
2023-03-26T06:43:08.022Z,2.60
2023-03-26T06:45:40.919Z,2.70
2023-03-26T06:48:11.455Z,2.70
2023-03-26T06:50:41.868Z,2.70
2023-03-26T06:53:13.511Z,2.70
2023-03-26T06:55:43.673Z,2.70
2023-03-26T06:58:14.654Z,2.70
2023-03-26T07:00:46.432Z,2.60
2023-03-26T07:03:17.895Z,2.50
2023-03-26T07:05:49.139Z,2.50
2023-03-26T07:08:19.563Z,2.50
2023-03-26T07:10:50.158Z,2.50
2023-03-26T07:13:20.324Z,2.40
2023-03-26T07:15:54.027Z,2.40
2023-03-26T07:18:24.563Z,2.40
2023-03-26T07:20:56.261Z,2.40
2023-03-26T07:23:27.408Z,2.30
2023-03-26T07:25:58.266Z,2.30
2023-03-26T07:28:37.338Z,2.30
2023-03-26T07:31:22.775Z,2.30
2023-03-26T07:34:02.724Z,2.30
2023-03-26T07:36:37.740Z,2.30
2023-03-26T07:39:16.569Z,2.30
2023-03-26T07:41:52.203Z,2.30
2023-03-26T07:44:36.065Z,2.20
2023-03-26T07:47:20.581Z,2.20
2023-03-26T07:49:52.604Z,2.20
2023-03-26T07:52:23.471Z,2.20
2023-03-26T07:54:54.198Z,2.20
2023-03-26T07:57:35.208Z,2.20
2023-03-26T08:00:15.965Z,2.20
2023-03-26T08:03:06.998Z,2.20
2023-03-26T08:05:40.846Z,2.10
2023-03-26T08:08:21.094Z,2.10
2023-03-26T08:11:04.320Z,2.20
2023-03-26T08:13:41.486Z,2.20
2023-03-26T08:16:17.307Z,2.20
2023-03-26T08:18:54.907Z,2.20
2023-03-26T08:21:29.587Z,2.10
2023-03-26T08:24:04.541Z,2.20
2023-03-26T08:26:44.942Z,2.20
2023-03-26T08:29:22.604Z,2.20
2023-03-26T08:31:53.182Z,2.20
2023-03-26T08:34:25.185Z,2.20
2023-03-26T08:36:55.332Z,2.30
2023-03-26T08:39:25.573Z,2.40
2023-03-26T08:42:21.060Z,2.40
2023-03-26T08:45:29.101Z,2.40
2023-03-26T08:48:36.950Z,2.50
2023-03-26T08:51:45.137Z,2.50
2023-03-26T08:54:45.001Z,2.50
2023-03-26T08:57:37.210Z,2.40
2023-03-26T09:00:45.476Z,2.40
2023-03-26T09:03:51.704Z,2.40
2023-03-26T09:06:47.627Z,2.40
2023-03-26T09:09:50.690Z,2.40
2023-03-26T09:12:58.132Z,2.40
2023-03-26T09:16:07.109Z,2.40
2023-03-26T09:19:15.545Z,2.40
2023-03-26T09:22:25.982Z,2.30
2023-03-26T09:25:35.256Z,2.30
2023-03-26T09:28:26.092Z,2.30
2023-03-26T09:31:23.950Z,2.30
2023-03-26T09:34:01.406Z,2.30
2023-03-26T09:36:55.503Z,2.30
2023-03-26T09:39:38.507Z,2.30
2023-03-26T09:42:24.249Z,2.20
2023-03-26T09:45:32.927Z,2.10
2023-03-26T09:48:30.041Z,2.10
2023-03-26T09:51:14.277Z,2.00
2023-03-26T09:53:58.623Z,2.10
2023-03-26T09:56:39.733Z,2.00
2023-03-26T09:59:36.476Z,2.00
2023-03-26T10:02:45.933Z,2.00
2023-03-26T10:05:43.084Z,2.10
2023-03-26T10:08:33.574Z,2.10
2023-03-26T10:11:10.898Z,2.20
2023-03-26T10:13:56.226Z,2.20
2023-03-26T10:16:41.093Z,2.20
2023-03-26T10:19:31.839Z,2.10
2023-03-26T10:22:11.647Z,2.10
2023-03-26T10:24:56.787Z,2.10
2023-03-26T10:27:39.928Z,2.20
2023-03-26T10:30:54.215Z,2.20
2023-03-26T10:33:39.057Z,2.20
2023-03-26T10:36:27.617Z,2.10
2023-03-26T10:39:37.768Z,2.10
2023-03-26T10:42:21.999Z,2.10
2023-03-26T10:45:09.768Z,2.10
2023-03-26T10:48:14.562Z,2.10
2023-03-26T10:50:58.432Z,2.10
2023-03-26T10:53:38.083Z,2.10
2023-03-26T10:56:17.327Z,2.10
2023-03-26T10:58:50.057Z,2.10
2023-03-26T11:01:30.663Z,2.10
2023-03-26T11:04:06.947Z,2.10
2023-03-26T11:06:47.061Z,2.00
2023-03-26T11:09:26.982Z,1.90
2023-03-26T11:12:26.791Z,1.80
2023-03-26T11:15:00.656Z,1.80
2023-03-26T11:17:41.576Z,1.70
2023-03-26T11:20:19.397Z,1.70
2023-03-26T11:23:13.002Z,1.60
2023-03-26T11:26:02.972Z,1.60
2023-03-26T11:31:46.956Z,1.60
2023-03-26T11:34:20.771Z,1.60
2023-03-26T11:34:36.816Z,1.60
2023-03-26T11:36:57.115Z,1.50
2023-03-26T11:39:32.036Z,1.60
2023-03-26T11:42:09.569Z,1.60
2023-03-26T11:44:43.066Z,1.60
2023-03-26T11:47:16.257Z,1.60
2023-03-26T11:49:50.827Z,1.60
2023-03-26T11:52:21.258Z,1.70
2023-03-26T11:54:54.352Z,1.70
2023-03-26T11:57:28.611Z,1.80
2023-03-26T12:00:04.939Z,1.80
2023-03-26T12:02:42.049Z,1.90
2023-03-26T12:05:21.451Z,1.90
2023-03-26T12:07:59.490Z,2.00
2023-03-26T12:10:38.655Z,2.10
2023-03-26T12:13:30.411Z,2.10
2023-03-26T12:16:11.150Z,2.20
2023-03-26T12:18:44.041Z,2.20
2023-03-26T12:21:15.918Z,2.20
2023-03-26T12:23:57.240Z,2.30
2023-03-26T12:26:41.939Z,2.30
2023-03-26T12:29:14.969Z,2.30
2023-03-26T12:31:52.887Z,2.30
2023-03-26T12:34:25.046Z,2.40
2023-03-26T12:36:57.337Z,2.30
2023-03-26T12:40:08.758Z,2.40
2023-03-26T12:44:46.458Z,2.40
2023-03-26T12:45:25.181Z,2.40
2023-03-26T12:48:03.696Z,2.40
2023-03-26T12:50:53.894Z,2.40
2023-03-26T12:53:53.548Z,2.40
2023-03-26T12:56:39.050Z,2.50
2023-03-26T12:59:26.722Z,2.60
2023-03-26T13:02:04.027Z,2.60
2023-03-26T13:05:05.592Z,2.70
2023-03-26T13:07:52.829Z,2.80
2023-03-26T13:10:39.832Z,2.80
2023-03-26T13:13:30.546Z,2.90
2023-03-26T13:16:06.881Z,2.90
2023-03-26T13:18:45.702Z,2.80
2023-03-26T13:21:29.220Z,2.90
2023-03-26T13:24:07.272Z,2.90
2023-03-26T13:26:51.361Z,2.90
2023-03-26T13:29:28.343Z,2.90
2023-03-26T13:32:07.784Z,2.90
2023-03-26T13:34:45.202Z,2.90
2023-03-26T13:37:21.280Z,2.90
2023-03-26T13:40:01.197Z,2.90
2023-03-26T13:42:52.823Z,2.80
2023-03-26T13:45:40.964Z,2.80
2023-03-26T13:48:19.078Z,2.80
2023-03-26T13:50:59.351Z,2.80
2023-03-26T13:53:35.600Z,2.80
2023-03-26T13:56:07.519Z,2.80
2023-03-26T13:58:42.665Z,2.80
2023-03-26T14:01:17.701Z,2.90
2023-03-26T14:03:58.436Z,2.90
2023-03-26T14:06:47.685Z,3.00
2023-03-26T14:09:25.412Z,3.10
2023-03-26T14:12:20.889Z,3.20
2023-03-26T14:14:57.678Z,3.20
2023-03-26T14:17:32.606Z,3.30
2023-03-26T14:20:44.704Z,3.30
2023-03-26T14:23:42.408Z,3.30
2023-03-26T14:26:23.052Z,3.40
2023-03-26T14:29:27.751Z,3.40
2023-03-26T14:32:09.661Z,3.50
2023-03-26T14:34:55.696Z,3.60
2023-03-26T14:38:04.633Z,3.60
2023-03-26T14:40:51.717Z,3.60
2023-03-26T14:44:07.674Z,3.70
2023-03-26T14:46:47.100Z,3.80
2023-03-26T14:49:40.635Z,3.80
2023-03-26T14:52:16.024Z,3.90
2023-03-26T14:54:50.043Z,3.80
2023-03-26T14:57:53.923Z,3.80
2023-03-26T15:00:49.881Z,3.70
2023-03-26T15:04:07.128Z,3.70
2023-03-26T15:07:06.013Z,3.70
2023-03-26T15:10:11.375Z,3.70
2023-03-26T15:13:16.096Z,3.60
2023-03-26T15:16:42.864Z,3.70
2023-03-26T15:19:44.043Z,3.70
2023-03-26T15:22:45.811Z,3.60
2023-03-26T15:25:50.139Z,3.60
2023-03-26T15:29:10.328Z,3.70
2023-03-26T15:32:02.228Z,3.70
2023-03-26T15:34:58.096Z,3.70
2023-03-26T15:37:49.707Z,3.80
2023-03-26T15:40:31.680Z,3.80
2023-03-26T15:43:13.098Z,3.90
2023-03-26T15:45:48.180Z,4.00
2023-03-26T15:52:19.887Z,4.20
2023-03-26T15:54:56.764Z,4.20
2023-03-26T15:57:32.935Z,4.30
2023-03-26T16:00:15.922Z,4.30
2023-03-26T16:02:54.241Z,4.40
2023-03-26T16:05:38.814Z,4.60
2023-03-26T16:08:23.896Z,4.60
2023-03-26T16:10:56.734Z,4.50
2023-03-26T16:13:37.373Z,4.60
2023-03-26T16:16:48.005Z,4.50
2023-03-26T16:19:52.492Z,4.60
2023-03-26T16:22:58.190Z,4.80
2023-03-26T16:25:32.448Z,4.90
2023-03-26T16:28:29.924Z,5.00
2023-03-26T16:31:37.969Z,5.00
2023-03-26T16:34:32.123Z,5.00
2023-03-26T16:37:02.846Z,5.10
2023-03-26T16:39:50.634Z,5.20
2023-03-26T16:42:40.702Z,5.30
2023-03-26T16:45:22.003Z,5.50
2023-03-26T16:48:03.698Z,5.50
2023-03-26T16:50:46.838Z,5.40
2023-03-26T16:53:30.135Z,5.20
2023-03-26T16:56:05.466Z,5.10
2023-03-26T16:58:47.331Z,5.10
2023-03-26T17:01:28.570Z,5.00
2023-03-26T17:04:05.331Z,5.00
2023-03-26T17:07:14.537Z,5.00
2023-03-26T17:10:01.197Z,4.90
2023-03-26T17:12:39.230Z,5.00
2023-03-26T17:15:22.080Z,4.90
2023-03-26T17:18:18.387Z,4.90
2023-03-26T17:21:00.271Z,4.90
2023-03-26T17:23:54.519Z,4.90
2023-03-26T17:26:29.545Z,4.90
2023-03-26T17:29:20.061Z,4.90
2023-03-26T17:32:00.763Z,4.80
2023-03-26T17:34:56.384Z,4.80
2023-03-26T17:37:37.767Z,4.90
2023-03-26T17:40:55.302Z,5.00
2023-03-26T17:43:46.710Z,5.30
2023-03-26T17:46:34.719Z,5.50
2023-03-26T17:49:17.226Z,5.60
2023-03-26T17:51:52.594Z,5.80
2023-03-26T17:54:28.047Z,5.80
2023-03-26T17:57:03.072Z,5.70
2023-03-26T17:59:35.848Z,5.60
2023-03-26T18:02:08.188Z,5.60
2023-03-26T18:04:46.336Z,5.60
2023-03-26T18:07:51.122Z,5.60
2023-03-26T18:10:35.770Z,5.60
2023-03-26T18:13:32.013Z,5.50
2023-03-26T18:16:14.299Z,5.30
2023-03-26T18:18:51.546Z,5.40
2023-03-26T18:21:30.469Z,5.30
2023-03-26T18:24:01.804Z,5.40
2023-03-26T18:26:39.132Z,5.40
2023-03-26T18:29:20.270Z,5.40
2023-03-26T18:31:55.152Z,5.60
2023-03-26T18:34:26.722Z,5.80
2023-03-26T18:37:17.044Z,6.00
2023-03-26T18:40:00.296Z,6.20
2023-03-26T18:42:32.802Z,6.50
2023-03-26T18:45:05.893Z,6.80
2023-03-26T18:47:39.141Z,7.10
2023-03-26T18:50:16.971Z,7.10
2023-03-26T18:52:49.221Z,7.30
2023-03-26T18:55:19.461Z,7.40
2023-03-26T18:57:53.652Z,7.50
2023-03-26T19:00:26.054Z,7.70
2023-03-26T19:03:06.485Z,8.10
2023-03-26T19:05:38.335Z,8.00
2023-03-26T19:08:10.402Z,7.70
2023-03-26T19:10:40.800Z,7.60
2023-03-26T19:13:16.753Z,7.80
2023-03-26T19:15:49.578Z,8.20
2023-03-26T19:18:22.502Z,8.70
2023-03-26T19:20:55.320Z,9.30
2023-03-26T19:23:32.320Z,9.50
2023-03-26T19:26:04.862Z,9.90
2023-03-26T19:28:43.930Z,9.20
2023-03-26T19:31:24.627Z,9.10
2023-03-26T19:34:00.188Z,9.20
2023-03-26T19:36:32.158Z,8.80
2023-03-26T19:39:24.218Z,8.20
2023-03-26T19:42:01.365Z,8.00
2023-03-26T19:44:32.602Z,7.90
2023-03-26T19:47:07.798Z,7.60
2023-03-26T19:49:50.961Z,7.20
2023-03-26T19:52:25.596Z,7.00
2023-03-26T19:55:02.795Z,6.90
2023-03-26T19:57:35.357Z,6.60
2023-03-26T20:00:14.164Z,6.50
2023-03-26T20:02:46.637Z,6.40
2023-03-26T20:05:23.496Z,6.30
2023-03-26T20:07:54.035Z,6.20
2023-03-26T20:10:26.160Z,6.10
2023-03-26T20:12:56.541Z,6.10
2023-03-26T20:15:28.905Z,6.10
2023-03-26T20:17:59.762Z,6.10
2023-03-26T20:20:30.260Z,6.10
2023-03-26T20:23:00.561Z,6.10
2023-03-26T20:25:35.076Z,6.00
2023-03-26T20:28:05.550Z,6.10
2023-03-26T20:30:37.799Z,6.20
2023-03-26T20:33:11.983Z,6.30
2023-03-26T20:35:44.330Z,6.40
2023-03-26T20:38:14.531Z,6.50
2023-03-26T20:40:47.016Z,6.40
2023-03-26T20:43:20.338Z,6.20
2023-03-26T20:45:50.662Z,6.20
2023-03-26T20:48:21.022Z,6.30
2023-03-26T20:50:51.613Z,6.30
2023-03-26T20:53:21.923Z,6.30
2023-03-26T20:55:53.920Z,6.40
2023-03-26T20:58:30.986Z,6.40
2023-03-26T21:01:03.871Z,6.30
2023-03-26T21:03:34.652Z,6.30
2023-03-26T21:06:05.777Z,6.30
2023-03-26T21:08:36.480Z,6.20
2023-03-26T21:11:26.484Z,6.20
2023-03-26T21:14:03.250Z,6.10
2023-03-26T21:16:34.189Z,6.20
2023-03-26T21:19:09.137Z,6.10
2023-03-26T21:21:51.454Z,6.10
2023-03-26T21:24:33.753Z,6.10
2023-03-26T21:27:14.607Z,6.10
2023-03-26T21:29:45.340Z,6.00
2023-03-26T21:32:16.060Z,5.90
2023-03-26T21:34:55.736Z,5.80
2023-03-26T21:37:29.905Z,5.90
2023-03-26T21:40:01.308Z,5.80
2023-03-26T21:42:34.117Z,5.70
2023-03-26T21:45:04.813Z,5.70
2023-03-26T21:47:35.823Z,5.60
2023-03-26T21:50:07.184Z,5.60
2023-03-26T21:52:47.258Z,5.50
2023-03-26T21:55:19.969Z,5.50
2023-03-26T21:58:12.804Z,5.40
2023-03-26T22:00:53.069Z,5.30
2023-03-26T22:03:28.604Z,5.30
2023-03-26T22:06:05.608Z,5.30
2023-03-26T22:08:39.902Z,5.30
2023-03-26T22:11:10.764Z,5.30
2023-03-26T22:13:42.810Z,5.20
2023-03-26T22:16:13.649Z,5.20
2023-03-26T22:18:44.288Z,5.10
2023-03-26T22:21:14.811Z,5.10
2023-03-26T22:23:53.320Z,5.10
2023-03-26T22:26:25.410Z,5.10
2023-03-26T22:28:57.521Z,5.20
2023-03-26T22:31:28.312Z,5.40
2023-03-26T22:33:58.956Z,5.40
2023-03-26T22:36:29.223Z,5.30
2023-03-26T22:38:59.574Z,5.20
2023-03-26T22:41:30.257Z,5.00
2023-03-26T22:44:16.922Z,4.90
2023-03-26T22:46:51.934Z,4.80
2023-03-26T22:49:22.517Z,4.80
2023-03-26T22:51:53.559Z,4.80
2023-03-26T22:54:23.896Z,4.70
2023-03-26T22:56:56.047Z,4.80
2023-03-26T22:59:28.440Z,4.70
2023-03-26T23:01:59.200Z,4.70
2023-03-26T23:04:32.210Z,4.60
2023-03-26T23:07:02.995Z,4.50
2023-03-26T23:09:33.562Z,4.50
2023-03-26T23:12:03.782Z,4.40
2023-03-26T23:14:37.070Z,4.40
2023-03-26T23:17:07.358Z,4.40
2023-03-26T23:19:37.710Z,4.30
2023-03-26T23:22:08.853Z,4.20
2023-03-26T23:24:40.101Z,4.10
2023-03-26T23:27:11.406Z,4.00
2023-03-26T23:29:43.158Z,3.90
2023-03-26T23:32:23.468Z,3.80
2023-03-26T23:34:56.510Z,3.70
2023-03-26T23:37:26.758Z,3.70
2023-03-26T23:39:57.464Z,3.70
2023-03-26T23:42:28.750Z,3.60
2023-03-26T23:45:01.772Z,3.50
2023-03-26T23:47:35.190Z,3.50
2023-03-26T23:50:07.393Z,3.50
2023-03-26T23:52:38.838Z,3.40
2023-03-26T23:55:09.768Z,3.40
2023-03-26T23:57:39.992Z,3.40
